Terminal Aerodrome Forecast
Issued by NWS

Home | Current Version | Previous Version | Text Only | Print | Product List | Glossary On
Versions: 1 2 3 4 5 6 7 8 9 10 11 12
499
FTUS45 KRIW 241125
TAFJAC
TAF
KJAC 241125Z 2412/2512 01005KT P6SM SCT100
     FM242000 23012KT P6SM VCTS SCT070CB BKN120
     FM250100 21009KT P6SM SCT080 BKN150
     FM250500 20006KT P6SM SCT090
      AMD LTD TO CLD VIS AND WIND=

USA.gov is the U.S. government's official web portal to all federal, state and local government web resources and services.